Time;durP1;ratioP1;P1;durP2;ratioP2;P2;SDS_P1;SDS_P2;PMS_P1;PMS_P2;Temp;Humidity;BMP_temperature;BMP_pressure;BME280_temperature;BME280_humidity;BME280_pressure;Samples;Min_cycle;Max_cycle;Signal;HPM_P1;HPM_P2
2023/02/11 00:01:24;;;;;;;34.55;16.15;;;;;;;-4.65;63.36;102046.88;5093022;28;20039;-36
2023/02/11 00:03:50;;;;;;;25.95;12.35;;;;;;;-4.80;64.58;102037.16;5092878;28;20559;-36
2023/02/11 00:06:16;;;;;;;28.73;13.98;;;;;;;-5.10;65.25;102037.66;5093160;28;20085;-36
2023/02/11 00:08:42;;;;;;;35.00;15.90;;;;;;;-5.12;65.16;102039.47;5092754;28;20032;-36
2023/02/11 00:11:12;;;;;;;44.78;18.42;;;;;;;-4.77;64.27;102060.44;5075100;28;20028;-36
2023/02/11 00:13:37;;;;;;;49.25;20.35;;;;;;;-4.70;64.12;102056.63;5092476;28;20431;-36
2023/02/11 00:16:08;;;;;;;47.10;22.35;;;;;;;-4.63;63.99;102058.06;5092725;28;20028;-36
2023/02/11 00:18:35;;;;;;;47.28;20.00;;;;;;;-4.56;63.37;102061.19;5074330;28;20400;-36
2023/02/11 00:21:05;;;;;;;40.38;18.13;;;;;;;-4.85;63.13;102037.38;5092663;28;20474;-36
2023/02/11 00:23:30;;;;;;;43.20;19.33;;;;;;;-4.45;62.70;102056.34;5092180;28;20540;-36
2023/02/11 00:25:56;;;;;;;37.95;18.55;;;;;;;-4.52;62.50;102055.78;5074658;28;20024;-37
2023/02/11 00:28:21;;;;;;;40.40;19.27;;;;;;;-4.85;62.78;102048.63;5074445;28;20032;-36
2023/02/11 00:30:56;;;;;;;41.55;20.00;;;;;;;-5.13;63.95;102036.03;5092539;28;20039;-35
2023/02/11 00:33:22;;;;;;;42.80;19.33;;;;;;;-4.88;63.20;102053.97;5092220;28;20039;-35
2023/02/11 00:35:48;;;;;;;43.38;18.65;;;;;;;-5.03;63.93;102062.47;5091909;28;20024;-35
2023/02/11 00:38:14;;;;;;;65.03;25.75;;;;;;;-5.14;64.54;102054.31;5092597;28;20028;-36
2023/02/11 00:40:39;;;;;;;43.38;20.67;;;;;;;-5.18;64.12;102043.19;5073623;28;20516;-36
2023/02/11 00:43:05;;;;;;;35.88;16.52;;;;;;;-5.41;64.25;102023.41;5092324;28;20016;-36
2023/02/11 00:45:30;;;;;;;34.00;15.95;;;;;;;-5.02;63.68;102051.16;5073477;28;20093;-35
2023/02/11 00:47:58;;;;;;;46.15;18.38;;;;;;;-4.91;63.48;102048.91;5092171;28;20404;-36
2023/02/11 00:50:24;;;;;;;49.45;21.23;;;;;;;-4.83;62.99;102042.50;5091877;28;20028;-36
2023/02/11 00:52:49;;;;;;;37.67;17.58;;;;;;;-4.99;64.08;102038.00;5091775;28;20043;-36
2023/02/11 00:55:15;;;;;;;38.33;16.70;;;;;;;-4.99;64.55;102045.78;5091879;28;20031;-36
2023/02/11 00:57:40;;;;;;;40.35;15.63;;;;;;;-5.36;64.66;102010.19;5091862;28;20016;-36
2023/02/11 01:00:08;;;;;;;34.50;16.90;;;;;;;-5.30;65.50;102039.38;5092019;28;20111;-35
2023/02/11 01:02:33;;;;;;;45.08;19.92;;;;;;;-5.24;65.30;102040.84;5091082;28;20111;-36
2023/02/11 01:04:59;;;;;;;36.90;16.55;;;;;;;-5.18;64.47;102024.13;5090879;28;20107;-36
2023/02/11 01:07:26;;;;;;;53.53;21.98;;;;;;;-5.49;65.98;102020.31;5091094;28;20024;-36
2023/02/11 01:09:52;;;;;;;34.33;16.10;;;;;;;-5.60;66.72;102027.69;5091668;28;20036;-36
2023/02/11 01:12:17;;;;;;;37.28;16.88;;;;;;;-5.71;66.77;102007.38;5072921;28;20108;-36
2023/02/11 01:14:43;;;;;;;41.22;15.38;;;;;;;-5.65;67.09;102020.94;5091120;28;20119;-37
2023/02/11 01:17:08;;;;;;;34.83;15.82;;;;;;;-5.38;66.22;102038.03;5091480;28;20100;-37
2023/02/11 01:19:36;;;;;;;36.75;16.75;;;;;;;-5.39;65.22;101995.59;5090884;28;20480;-37
2023/02/11 01:22:01;;;;;;;34.13;15.95;;;;;;;-5.15;65.07;102013.59;5091565;28;20028;-36
2023/02/11 01:24:27;;;;;;;35.85;17.45;;;;;;;-5.10;65.23;102028.06;5091236;28;20442;-36
2023/02/11 01:26:52;;;;;;;33.83;15.68;;;;;;;-5.21;65.23;102026.88;5073055;28;20024;-36
2023/02/11 01:29:18;;;;;;;34.58;15.80;;;;;;;-5.41;65.17;102012.13;5072611;28;20028;-36
2023/02/11 01:31:43;;;;;;;41.55;17.60;;;;;;;-5.30;65.81;102035.94;5091048;28;20515;-36
2023/02/11 01:34:08;;;;;;;33.83;16.70;;;;;;;-5.37;65.18;102027.56;5090710;28;20043;-36
2023/02/11 01:36:34;;;;;;;38.05;16.75;;;;;;;-5.58;65.53;101997.28;5073027;28;20035;-36
2023/02/11 01:38:59;;;;;;;40.05;16.75;;;;;;;-5.59;65.21;102004.25;5090745;28;20036;-35
2023/02/11 01:41:25;;;;;;;40.15;17.02;;;;;;;-5.51;65.25;102001.31;5090635;28;20072;-35
2023/02/11 01:43:50;;;;;;;39.53;18.05;;;;;;;-5.56;65.11;101998.06;5090869;28;20137;-36
2023/02/11 01:46:34;;;;;;;44.42;19.92;;;;;;;-5.51;65.30;102011.72;5090506;28;20031;-37
2023/02/11 01:49:10;;;;;;;44.88;20.65;;;;;;;-5.53;65.74;102013.53;5091068;28;20032;-36
2023/02/11 01:51:42;;;;;;;43.45;18.88;;;;;;;-5.49;66.51;102015.09;5090875;28;20035;-36
2023/02/11 02:00:03;;;;;;;39.13;15.35;;;;;;;-5.43;65.23;102033.03;5090856;28;20074;-36
2023/02/11 02:02:38;;;;;;;35.10;14.33;;;;;;;-5.48;66.88;102022.81;5072261;28;20124;-35
2023/02/11 02:05:19;;;;;;;27.70;13.20;;;;;;;-5.36;65.97;102018.84;5089573;28;20399;-37
2023/02/11 02:07:55;;;;;;;32.13;14.23;;;;;;;-5.40;65.00;101973.06;5090514;28;20024;-36
2023/02/11 02:10:24;;;;;;;32.22;14.43;;;;;;;-5.11;63.01;102015.13;5090323;28;20052;-37
2023/02/11 02:12:50;;;;;;;27.65;13.48;;;;;;;-5.31;63.73;101993.47;5090617;28;20032;-36
2023/02/11 02:15:20;;;;;;;32.28;14.95;;;;;;;-5.96;65.87;102015.41;5090007;28;20039;-36
2023/02/11 02:17:53;;;;;;;38.85;14.02;;;;;;;-5.85;65.53;102000.16;5090166;28;20024;-36
2023/02/11 02:20:48;;;;;;;29.33;12.88;;;;;;;-5.49;63.83;102009.91;5090655;28;20495;-36
2023/02/11 02:23:44;;;;;;;26.08;13.20;;;;;;;-5.59;63.79;101988.66;5087275;28;20082;-35
2023/02/11 02:26:18;;;;;;;30.80;13.15;;;;;;;-6.00;65.63;102008.66;5090333;28;20024;-37
2023/02/11 02:29:18;;;;;;;30.58;14.25;;;;;;;-5.85;65.75;102010.56;5090355;28;20089;-36
2023/02/11 02:32:01;;;;;;;26.88;12.43;;;;;;;-5.96;65.78;102010.22;5090304;28;20054;-36
2023/02/11 02:34:42;;;;;;;27.27;12.85;;;;;;;-6.29;66.88;102011.53;5089859;28;20040;-36
2023/02/11 02:37:16;;;;;;;29.33;15.00;;;;;;;-6.24;65.98;101998.34;5090049;28;20446;-36
2023/02/11 02:39:45;;;;;;;26.20;13.35;;;;;;;-6.09;65.95;101994.28;5089602;28;20416;-37
2023/02/11 02:42:12;;;;;;;27.75;12.15;;;;;;;-5.92;65.76;102001.34;5089785;28;20040;-36
2023/02/11 02:44:38;;;;;;;29.25;12.77;;;;;;;-5.93;65.92;102017.84;5089439;28;20093;-37
2023/02/11 02:47:03;;;;;;;34.03;15.13;;;;;;;-6.44;67.62;101982.75;5089588;28;20160;-36
2023/02/11 02:49:29;;;;;;;33.97;14.18;;;;;;;-6.22;66.90;102014.72;5089679;28;20027;-36
2023/02/11 02:52:17;;;;;;;30.40;13.93;;;;;;;-6.56;67.48;102015.22;5071456;28;20028;-36
2023/02/11 02:54:57;;;;;;;;;;;;;;;-6.47;67.82;102020.91;5072378;28;20045;-36
2023/02/11 02:57:47;;;;;;;29.85;13.00;;;;;;;-6.10;67.50;102019.41;5089330;28;19908;-36
2023/02/11 03:00:36;;;;;;;26.42;12.85;;;;;;;-5.67;66.23;102022.75;5071282;28;20028;-35
2023/02/11 03:03:27;;;;;;;31.50;13.30;;;;;;;-6.01;66.20;102022.53;5089222;28;20505;-37
2023/02/11 03:06:07;;;;;;;29.58;14.32;;;;;;;-6.15;66.41;101985.00;5089373;28;20024;-37
2023/02/11 03:08:58;;;;;;;29.70;12.75;;;;;;;-6.14;66.93;102002.25;5089588;28;20028;-35
2023/02/11 03:11:24;;;;;;;31.13;13.07;;;;;;;-5.84;65.89;102004.47;5088935;28;20040;-36
2023/02/11 03:13:51;;;;;;;38.38;14.18;;;;;;;-6.18;67.52;102011.09;5089600;28;20598;-36
2023/02/11 03:16:24;;;;;;;35.92;12.85;;;;;;;-6.45;68.95;101983.66;5089165;28;20029;-36
2023/02/11 03:19:00;;;;;;;32.55;13.98;;;;;;;-6.17;68.72;102010.19;5089754;28;20032;-36
2023/02/11 03:21:31;;;;;;;32.38;14.88;;;;;;;-6.22;68.43;101980.97;5089131;28;20028;-36
2023/02/11 03:24:03;;;;;;;34.92;14.38;;;;;;;-6.01;67.64;102012.16;5089122;28;20024;-36
2023/02/11 03:26:36;;;;;;;40.83;16.27;;;;;;;-6.14;67.33;102002.25;5089202;28;20081;-37
2023/02/11 03:29:23;;;;;;;32.63;14.82;;;;;;;-6.65;69.19;102006.06;5071320;28;20020;-36
2023/02/11 03:31:48;;;;;;;31.50;13.02;;;;;;;-6.48;69.96;102007.97;5089339;28;20031;-36
2023/02/11 03:34:22;;;;;;;27.63;12.88;;;;;;;-6.48;68.50;101998.47;5089143;28;20387;-36
2023/02/11 03:36:55;;;;;;;32.28;14.70;;;;;;;-6.89;69.29;101977.53;5089782;28;20043;-35
2023/02/11 03:39:39;;;;;;;24.55;13.02;;;;;;;-7.06;70.65;102011.06;5070520;28;20029;-36
2023/02/11 03:42:09;;;;;;;36.40;14.00;;;;;;;-6.58;69.26;102007.47;5088984;28;20048;-36
2023/02/11 03:44:50;;;;;;;36.22;15.90;;;;;;;-6.49;68.59;101981.19;5089070;28;20110;-36
2023/02/11 03:47:19;;;;;;;34.00;13.90;;;;;;;-6.39;68.44;101997.22;5088768;28;20032;-36
2023/02/11 03:49:48;;;;;;;34.20;14.18;;;;;;;-6.17;68.32;102002.41;5089023;28;20063;-36
2023/02/11 03:52:15;;;;;;;29.02;13.48;;;;;;;-6.31;68.85;101999.53;5089049;28;20035;-35
2023/02/11 03:54:44;;;;;;;25.42;13.38;;;;;;;-6.36;69.39;101998.84;5089001;28;20479;-35
2023/02/11 03:57:10;;;;;;;30.17;12.95;;;;;;;-6.23;68.80;102007.84;5088957;28;20028;-36
2023/02/11 03:59:55;;;;;;;30.90;14.65;;;;;;;-6.21;68.78;102013.81;5088717;28;20130;-37
2023/02/11 04:02:24;;;;;;;30.77;13.68;;;;;;;-6.10;68.92;102003.81;5088785;28;20050;-37
2023/02/11 04:04:49;;;;;;;36.58;14.10;;;;;;;-6.12;68.94;101991.81;5088994;28;20035;-36
2023/02/11 04:07:17;;;;;;;29.40;13.25;;;;;;;-6.79;69.88;101980.63;5088485;28;20028;-36
2023/02/11 04:09:42;;;;;;;30.27;12.82;;;;;;;-7.42;69.78;101984.75;5088838;28;20036;-35
2023/02/11 04:12:08;;;;;;;28.98;13.05;;;;;;;-7.36;69.75;101987.13;5088793;28;20097;-35
2023/02/11 04:14:33;;;;;;;27.63;12.55;;;;;;;-7.54;69.05;101973.94;5088670;28;20028;-36
2023/02/11 04:16:59;;;;;;;29.90;12.93;;;;;;;-7.87;70.58;102004.44;5088715;28;20023;-35
2023/02/11 04:19:24;;;;;;;24.10;12.15;;;;;;;-7.96;71.86;101989.25;5088619;28;20612;-36
2023/02/11 04:21:50;;;;;;;28.35;12.65;;;;;;;-8.05;71.44;101986.94;5088742;28;20021;-36
2023/02/11 04:24:15;;;;;;;36.10;11.70;;;;;;;-7.48;69.92;102007.41;5070560;28;20034;-35
2023/02/11 04:26:40;;;;;;;34.42;14.30;;;;;;;-7.65;69.93;102008.91;5088968;28;20537;-36
2023/02/11 04:29:06;;;;;;;31.90;13.25;;;;;;;-7.57;70.00;101979.22;5072960;28;20024;-35
2023/02/11 04:31:31;;;;;;;31.88;15.90;;;;;;;-7.35;69.70;101960.31;5092178;28;20032;-36
2023/02/11 04:33:56;;;;;;;33.90;14.75;;;;;;;-7.23;70.36;101997.88;5092609;28;20526;-37
2023/02/11 04:36:22;;;;;;;31.40;15.02;;;;;;;-7.32;70.58;101968.78;5092106;28;20016;-36
2023/02/11 04:38:47;;;;;;;28.17;14.07;;;;;;;-7.39;71.97;101993.28;5092175;28;20036;-37
2023/02/11 04:41:13;;;;;;;26.85;13.25;;;;;;;-7.21;72.01;101985.69;5073400;28;20047;-36
2023/02/11 04:43:38;;;;;;;31.52;14.57;;;;;;;-7.21;71.69;101949.41;5073992;28;20035;-36
2023/02/11 04:46:04;;;;;;;31.60;14.73;;;;;;;-7.31;74.93;101975.69;5091655;28;20779;-36
2023/02/11 04:48:29;;;;;;;31.50;13.38;;;;;;;-7.61;76.07;101962.09;5074185;28;20024;-36
2023/02/11 04:50:54;;;;;;;29.35;13.05;;;;;;;-7.45;77.11;101977.94;5092119;28;20024;-36
2023/02/11 04:53:20;;;;;;;32.92;15.50;;;;;;;-7.69;76.54;101959.78;5091602;28;20499;-36
2023/02/11 04:55:49;;;;;;;36.25;14.95;;;;;;;-7.10;74.93;101991.34;5091843;28;20149;-35
2023/02/11 04:58:15;;;;;;;35.90;15.82;;;;;;;-6.75;72.47;101984.78;5073342;28;20477;-37
2023/02/11 05:00:40;;;;;;;28.60;14.68;;;;;;;-6.87;72.10;101961.94;5092014;28;20028;-36
2023/02/11 05:03:08;;;;;;;31.30;15.18;;;;;;;-6.86;73.17;101981.78;5091763;28;20024;-37
2023/02/11 05:05:38;;;;;;;28.75;14.18;;;;;;;-6.80;73.32;101984.16;5091617;28;20126;-37
2023/02/11 05:08:03;;;;;;;29.10;13.52;;;;;;;-6.87;72.92;101985.28;5091520;28;20123;-36
2023/02/11 05:10:29;;;;;;;31.00;14.70;;;;;;;-7.09;73.32;101955.00;5091517;28;20174;-36
2023/02/11 05:12:54;;;;;;;29.20;12.40;;;;;;;-7.00;73.08;101974.53;5091322;28;20032;-37
2023/02/11 05:15:20;;;;;;;32.78;14.90;;;;;;;-6.76;72.38;101990.03;5091658;28;20020;-36
2023/02/11 05:17:45;;;;;;;34.90;16.55;;;;;;;-6.64;70.45;101986.97;5091568;28;20024;-37
2023/02/11 05:20:11;;;;;;;261.77;96.97;;;;;;;-6.77;72.79;101998.75;5091431;28;20161;-36
2023/02/11 05:22:36;;;;;;;83.90;36.85;;;;;;;-7.21;72.55;101972.75;5091417;28;20594;-36
2023/02/11 05:25:02;;;;;;;56.08;26.25;;;;;;;-6.96;72.27;101967.50;5091245;28;20024;-36
2023/02/11 05:27:27;;;;;;;76.10;27.35;;;;;;;-6.79;71.53;101948.66;5090691;28;20064;-36
2023/02/11 05:29:52;;;;;;;147.40;52.42;;;;;;;-6.49;70.57;101972.56;5091305;28;20024;-36
2023/02/11 05:32:18;;;;;;;52.53;23.13;;;;;;;-6.43;70.49;102006.06;5091296;28;20104;-37
2023/02/11 05:34:43;;;;;;;113.85;46.97;;;;;;;-6.53;70.32;101995.19;5073034;28;20037;-36
2023/02/11 05:37:09;;;;;;;79.68;32.78;;;;;;;-6.65;70.50;101961.94;5091085;28;20502;-37
2023/02/11 05:39:34;;;;;;;63.80;28.23;;;;;;;-6.51;69.61;101975.19;5089542;28;20565;-36
2023/02/11 05:42:00;;;;;;;58.20;25.67;;;;;;;-6.44;69.72;101988.78;5090689;28;20035;-35
2023/02/11 05:44:25;;;;;;;66.00;34.45;;;;;;;-6.66;70.29;101968.00;5091162;28;20035;-36
2023/02/11 05:46:50;;;;;;;44.03;22.23;;;;;;;-6.68;72.00;101982.81;5090717;28;20038;-36
2023/02/11 05:49:16;;;;;;;39.08;17.02;;;;;;;-6.79;72.50;101985.00;5090754;28;20034;-35
2023/02/11 05:51:44;;;;;;;33.35;15.88;;;;;;;-6.68;72.30;101975.03;5091030;28;20035;-37
2023/02/11 05:54:10;;;;;;;37.53;14.10;;;;;;;-6.28;71.09;101978.63;5090687;28;20766;-37
2023/02/11 05:56:35;;;;;;;30.17;14.02;;;;;;;-6.13;70.33;102006.56;5090435;28;20032;-36
2023/02/11 05:59:01;;;;;;;34.85;14.00;;;;;;;-6.03;70.18;101998.38;5090496;28;20020;-36
2023/02/11 06:01:26;;;;;;;31.45;13.10;;;;;;;-5.90;69.49;102002.13;5090419;28;20039;-35
2023/02/11 06:03:51;;;;;;;30.90;15.45;;;;;;;-5.84;69.25;102007.06;5072362;28;20038;-36
2023/02/11 06:06:17;;;;;;;37.28;19.05;;;;;;;-5.82;69.26;102007.84;5090610;28;20055;-36
2023/02/11 06:08:42;;;;;;;32.65;14.75;;;;;;;-5.83;68.67;101995.75;5090388;28;20028;-36
2023/02/11 06:11:08;;;;;;;27.40;13.82;;;;;;;-5.79;68.12;101992.09;5090187;28;20111;-41
2023/02/11 06:13:34;;;;;;;30.98;13.07;;;;;;;-5.47;67.70;102001.13;5090262;28;20039;-37
2023/02/11 06:16:03;;;;;;;28.88;12.73;;;;;;;-5.18;66.40;102004.16;5090245;28;20024;-36
2023/02/11 06:18:29;;;;;;;27.77;13.38;;;;;;;-5.34;66.74;101987.56;5090224;28;20389;-36
2023/02/11 06:20:55;;;;;;;27.88;12.52;;;;;;;-5.21;66.38;102016.47;5090224;28;20027;-36
2023/02/11 06:23:20;;;;;;;31.88;13.15;;;;;;;-5.11;66.65;102008.19;5089710;28;20016;-36
2023/02/11 06:25:46;;;;;;;45.15;18.80;;;;;;;-5.01;66.58;102011.19;5089883;28;20062;-37
2023/02/11 06:28:11;;;;;;;30.05;14.40;;;;;;;-5.00;66.87;101986.03;5089903;28;20027;-36
2023/02/11 06:30:37;;;;;;;35.60;16.33;;;;;;;-5.01;67.70;101995.59;5090104;28;20023;-37
2023/02/11 06:33:06;;;;;;;30.55;17.55;;;;;;;-4.80;66.87;102017.19;5090120;28;20028;-37
2023/02/11 06:35:32;;;;;;;35.47;17.38;;;;;;;-4.97;67.56;101991.94;5089521;28;20090;-36
2023/02/11 06:37:58;;;;;;;32.03;13.68;;;;;;;-5.27;68.53;101989.81;5089755;28;20495;-36
2023/02/11 06:40:23;;;;;;;39.42;18.48;;;;;;;-5.20;68.72;101984.34;5089097;28;20071;-36
2023/02/11 06:42:49;;;;;;;38.53;17.30;;;;;;;-5.28;69.70;102019.34;5071157;28;20099;-36
2023/02/11 06:45:14;;;;;;;34.47;16.10;;;;;;;-5.15;70.26;102014.44;5071213;28;20032;-36
2023/02/11 06:47:40;;;;;;;42.05;19.10;;;;;;;-4.96;69.90;102009.25;5089558;28;20403;-37
2023/02/11 06:50:09;;;;;;;48.03;19.88;;;;;;;-4.67;69.37;101999.22;5089618;28;20032;-36
2023/02/11 06:52:38;;;;;;;37.38;17.83;;;;;;;-4.88;69.73;101985.47;5088892;28;20036;-36
2023/02/11 06:55:04;;;;;;;;;;;;;;;-4.96;71.21;102009.25;5089732;28;20024;-36
2023/02/11 06:57:34;;;;;;;35.05;16.60;;;;;;;-5.04;70.80;101977.53;5089195;28;20002;-36
2023/02/11 06:59:59;;;;;;;35.65;17.45;;;;;;;-4.52;70.87;102008.06;5089535;28;20052;-37
2023/02/11 07:02:24;;;;;;;35.80;16.48;;;;;;;-4.76;70.59;101984.03;5089173;28;20132;-36
2023/02/11 07:04:50;;;;;;;39.55;15.30;;;;;;;-4.62;71.52;101971.19;5089142;28;20474;-36
2023/02/11 07:07:15;;;;;;;32.50;15.75;;;;;;;-4.16;70.58;102000.22;5089347;28;20032;-36
2023/02/11 07:09:41;;;;;;;61.10;28.08;;;;;;;-4.06;71.52;101980.59;5088718;28;20024;-36
2023/02/11 07:12:09;;;;;;;50.97;21.02;;;;;;;-3.85;71.48;101998.69;5089006;28;20068;-36
2023/02/11 07:14:34;;;;;;;58.05;23.92;;;;;;;-3.44;69.83;101986.09;5089211;28;20020;-36
2023/02/11 07:17:00;;;;;;;36.40;15.60;;;;;;;-3.26;68.03;101989.50;5089253;28;20028;-36
2023/02/11 07:19:25;;;;;;;31.00;14.48;;;;;;;-3.65;67.30;101951.56;5088772;28;20016;-37
2023/02/11 07:21:50;;;;;;;36.72;16.23;;;;;;;-3.25;68.01;101988.59;5089065;28;20028;-37
2023/02/11 07:24:16;;;;;;;37.45;16.05;;;;;;;-3.08;67.50;101994.69;5088695;28;20031;-37
2023/02/11 07:26:41;;;;;;;29.13;14.82;;;;;;;-3.06;66.48;101987.63;5089250;28;20028;-37
2023/02/11 07:29:07;;;;;;;47.70;19.55;;;;;;;-3.05;67.55;101960.56;5089117;28;20154;-35
2023/02/11 07:31:32;;;;;;;32.40;15.32;;;;;;;-3.07;67.54;101978.09;5088806;28;20024;-36
2023/02/11 07:34:00;;;;;;;32.88;15.68;;;;;;;-3.26;67.15;101928.66;5087833;28;20039;-36
2023/02/11 07:36:30;;;;;;;36.30;18.40;;;;;;;-3.11;67.51;101984.41;5089057;28;20036;-36
2023/02/11 07:38:56;;;;;;;33.42;15.00;;;;;;;-2.81;67.45;101949.72;5089173;28;20036;-35
2023/02/11 07:41:23;;;;;;;32.60;16.10;;;;;;;-2.45;65.66;101952.03;5076696;28;20052;-35
2023/02/11 07:43:49;;;;;;;35.35;15.93;;;;;;;-2.15;64.77;101957.22;5076491;28;20092;-37
2023/02/11 07:46:17;;;;;;;35.33;15.82;;;;;;;-1.77;64.55;101959.34;5070598;28;20024;-35
2023/02/11 07:48:42;;;;;;;31.17;16.83;;;;;;;-1.32;62.34;101975.81;5088907;28;20062;-36
2023/02/11 07:51:11;;;;;;;31.35;16.83;;;;;;;-1.50;61.31;101971.69;5082098;28;20065;-36
2023/02/11 07:53:36;;;;;;;34.22;16.25;;;;;;;-1.16;61.53;101974.88;5074583;28;20033;-37
2023/02/11 07:56:03;;;;;;;33.58;16.52;;;;;;;-1.28;59.54;101956.34;5068641;28;20039;-37
2023/02/11 07:58:31;;;;;;;32.42;15.77;;;;;;;-1.43;60.33;101960.78;5068387;28;20146;-36
2023/02/11 08:01:05;;;;;;;36.03;17.30;;;;;;;-1.04;59.50;101984.56;5068566;28;20501;-37
2023/02/11 08:03:32;;;;;;;33.08;17.10;;;;;;;-0.82;59.08;101984.03;5070131;28;20040;-36
2023/02/11 08:05:57;;;;;;;35.15;16.33;;;;;;;-0.64;58.26;101976.78;5072304;28;20036;-36
2023/02/11 08:08:26;;;;;;;31.13;16.02;;;;;;;-0.95;59.30;101934.22;5072188;28;20476;-37
2023/02/11 08:10:51;;;;;;;;;;;;;;;-0.28;57.53;101977.97;5079746;28;20097;-37
2023/02/11 08:13:16;;;;;;;26.48;14.18;;;;;;;-0.41;56.35;101952.56;5073271;28;20035;-36
2023/02/11 08:15:44;;;;;;;31.25;14.55;;;;;;;-0.25;54.85;101973.34;5092475;28;20024;-36
2023/02/11 08:18:10;;;;;;;30.50;14.65;;;;;;;-0.35;55.72;101971.44;5092291;28;20020;-36
2023/02/11 08:20:35;;;;;;;34.05;15.48;;;;;;;-0.29;56.58;101950.06;5092178;28;20030;-37
2023/02/11 08:23:01;;;;;;;31.48;14.75;;;;;;;0.34;56.10;101970.25;5092275;28;20817;-36
2023/02/11 08:25:27;;;;;;;30.17;16.23;;;;;;;0.55;55.17;101964.47;5092087;28;20652;-36
2023/02/11 08:27:52;;;;;;;28.50;13.50;;;;;;;0.53;53.31;101961.09;5083873;28;20025;-36
2023/02/11 08:30:18;;;;;;;27.92;12.65;;;;;;;0.60;52.59;101949.25;5087389;28;20043;-37
2023/02/11 08:32:43;;;;;;;25.15;13.50;;;;;;;0.67;51.48;101958.34;5091903;28;20028;-37
2023/02/11 08:35:11;;;;;;;31.75;13.88;;;;;;;0.90;51.52;101940.13;5092009;28;20035;-37
2023/02/11 08:37:37;;;;;;;26.98;14.68;;;;;;;1.03;51.52;101937.47;5092123;28;20062;-37
2023/02/11 08:40:03;;;;;;;27.73;13.65;;;;;;;1.34;50.45;101949.22;5091882;28;20084;-35
2023/02/11 08:42:28;;;;;;;25.08;13.77;;;;;;;1.16;50.35;101931.19;5091956;28;20027;-35
2023/02/11 08:44:53;;;;;;;25.70;12.40;;;;;;;1.31;49.99;101954.69;5085499;28;20424;-37
2023/02/11 08:47:19;;;;;;;28.00;15.02;;;;;;;1.52;50.06;101955.75;5060822;28;20127;-37
2023/02/11 08:49:44;;;;;;;30.73;15.32;;;;;;;1.82;48.43;101933.41;5071327;28;20028;-37
2023/02/11 08:52:10;;;;;;;42.45;20.00;;;;;;;1.66;50.22;101948.66;5071592;28;20017;-37
2023/02/11 08:54:36;;;;;;;32.03;16.55;;;;;;;1.40;49.15;101943.53;5071383;28;20516;-35
2023/02/11 08:57:02;;;;;;;33.13;16.30;;;;;;;1.59;49.07;101937.72;5071529;28;20060;-37
2023/02/11 08:59:27;;;;;;;29.20;14.18;;;;;;;1.58;49.55;101950.03;5071186;28;20036;-37
2023/02/11 09:01:53;;;;;;;36.00;17.48;;;;;;;1.69;49.56;101935.25;5071058;28;20027;-37
2023/02/11 09:04:18;;;;;;;31.88;16.73;;;;;;;1.59;50.06;101937.72;5080632;28;20149;-37
2023/02/11 09:06:44;;;;;;;31.70;15.45;;;;;;;2.16;48.65;101946.59;5073210;28;20021;-37
2023/02/11 09:09:14;;;;;;;28.38;13.27;;;;;;;1.90;48.93;101945.94;5071258;28;20028;-37
2023/02/11 09:11:41;;;;;;;21.90;11.20;;;;;;;1.88;48.06;101926.81;5071095;28;20028;-36
2023/02/11 09:14:07;;;;;;;27.38;13.25;;;;;;;1.88;48.03;101922.41;5077146;28;20071;-37
2023/02/11 09:16:34;;;;;;;30.27;14.65;;;;;;;2.26;46.59;101950.22;5090990;28;20028;-37
2023/02/11 09:19:02;;;;;;;29.00;15.70;;;;;;;2.19;48.53;101933.22;5091748;28;20051;-37
2023/02/11 09:21:28;;;;;;;26.23;13.85;;;;;;;2.77;47.54;101915.47;5090953;28;20695;-37
2023/02/11 09:23:54;;;;;;;24.92;12.77;;;;;;;2.98;46.35;101935.78;5072217;28;20403;-36
2023/02/11 09:26:25;;;;;;;25.80;14.07;;;;;;;3.14;46.25;101925.69;5085764;28;20031;-37
2023/02/11 09:28:51;;;;;;;29.48;15.10;;;;;;;3.10;46.22;101915.53;5090521;28;20013;-36
2023/02/11 09:31:20;;;;;;;32.75;16.55;;;;;;;3.41;46.18;101896.25;5090200;28;20035;-37
2023/02/11 09:33:47;;;;;;;36.40;18.55;;;;;;;3.88;45.10;101926.69;5091274;28;20024;-36
2023/02/11 09:36:19;;;;;;;39.13;21.40;;;;;;;3.97;44.45;101912.72;5091122;28;20088;-37
2023/02/11 09:38:45;;;;;;;30.92;14.85;;;;;;;4.35;45.27;101896.25;5090974;28;20028;-37
2023/02/11 09:41:25;;;;;;;24.80;12.70;;;;;;;4.50;42.05;101899.34;5090935;28;20492;-37
2023/02/11 09:43:57;;;;;;;28.20;14.15;;;;;;;4.15;40.28;101881.28;5090597;28;20470;-37
2023/02/11 09:46:26;;;;;;;47.30;18.77;;;;;;;4.28;41.20;101896.91;5090952;28;20031;-37
2023/02/11 09:48:53;;;;;;;;;;;;;;;4.01;41.53;101898.28;5090891;28;20024;-36
2023/02/11 09:51:43;;;;;;;38.63;20.45;;;;;;;4.25;40.78;101897.13;5090255;28;19908;-36
2023/02/11 09:54:21;;;;;;;30.75;13.70;;;;;;;4.27;40.03;101864.38;5090323;28;20133;-37
2023/02/11 09:56:47;;;;;;;39.97;21.05;;;;;;;4.73;39.83;101880.63;5085529;28;20040;-37
2023/02/11 09:59:16;;;;;;;28.17;13.95;;;;;;;4.66;39.69;101877.69;5079593;28;20033;-37
2023/02/11 10:02:15;;;;;;;23.88;12.63;;;;;;;5.11;39.33;101874.56;5071461;28;20500;-37
2023/02/11 10:05:02;;;;;;;27.88;14.88;;;;;;;4.91;39.57;101852.56;5078769;28;20028;-37
2023/02/11 10:07:50;;;;;;;21.38;12.23;;;;;;;4.86;39.19;101853.94;5068510;28;20086;-37
2023/02/11 10:10:36;;;;;;;26.33;13.50;;;;;;;5.28;39.92;101836.00;5069994;28;20033;-37
2023/02/11 10:13:24;;;;;;;30.77;14.85;;;;;;;5.94;38.22;101829.84;5071461;28;20416;-37
2023/02/11 10:15:56;;;;;;;24.35;13.38;;;;;;;5.94;36.70;101834.31;5081097;28;20039;-37
2023/02/11 10:18:51;;;;;;;23.58;11.05;;;;;;;5.75;36.07;101829.91;5068634;28;20043;-36
2023/02/11 10:21:33;;;;;;;23.40;12.23;;;;;;;5.94;36.53;101803.34;5069356;28;20028;-37
2023/02/11 10:24:04;;;;;;;26.77;13.98;;;;;;;5.90;36.71;101817.88;5079821;28;20025;-37
2023/02/11 10:26:31;;;;;;;22.90;11.90;;;;;;;5.81;36.92;101810.81;5088726;28;20024;-37
2023/02/11 10:29:01;;;;;;;40.47;19.58;;;;;;;5.80;37.20;101814.41;5089825;28;20028;-37
2023/02/11 10:31:36;;;;;;;25.00;12.80;;;;;;;5.86;36.63;101783.91;5089619;28;20032;-37
2023/02/11 10:34:05;;;;;;;33.75;16.45;;;;;;;6.19;36.59;101806.34;5071856;28;20028;-37
2023/02/11 10:36:36;;;;;;;27.80;13.23;;;;;;;6.77;36.56;101778.66;5089508;28;20450;-37
2023/02/11 10:39:24;;;;;;;20.98;11.38;;;;;;;7.29;34.47;101793.81;5089646;28;20032;-37
2023/02/11 10:41:55;;;;;;;24.60;12.57;;;;;;;7.32;33.81;101764.34;5089529;28;20047;-37
2023/02/11 10:44:26;;;;;;;24.27;13.25;;;;;;;7.18;33.84;101761.25;5089273;28;20032;-36
2023/02/11 10:46:53;;;;;;;22.77;11.70;;;;;;;6.79;34.02;101760.78;5089709;28;20051;-37
2023/02/11 10:49:45;;;;;;;24.98;12.27;;;;;;;6.68;35.90;101764.50;5089123;28;20032;-37
2023/02/11 10:52:26;;;;;;;21.80;11.80;;;;;;;7.64;32.83;101767.19;5085865;28;20040;-37
2023/02/11 10:55:13;;;;;;;20.75;10.45;;;;;;;7.50;32.56;101759.81;5089571;28;20496;-36
2023/02/11 10:57:59;;;;;;;23.20;12.02;;;;;;;7.27;33.60;101754.16;5089625;28;20092;-37
2023/02/11 11:00:28;;;;;;;20.00;10.32;;;;;;;6.56;34.16;101752.41;5089410;28;20024;-36
2023/02/11 11:02:59;;;;;;;36.47;17.55;;;;;;;7.49;32.31;101741.38;5089490;28;20503;-37
2023/02/11 11:05:47;;;;;;;23.50;12.77;;;;;;;8.45;31.76;101739.25;5089253;28;20028;-37
2023/02/11 11:08:14;;;;;;;19.92;10.82;;;;;;;8.20;32.25;101740.19;5089307;28;20032;-37
2023/02/11 11:10:44;;;;;;;49.97;24.58;;;;;;;9.11;31.51;101733.94;5089272;28;20112;-37
2023/02/11 11:13:24;;;;;;;23.85;13.35;;;;;;;9.27;29.97;101725.13;5089126;28;20032;-37
2023/02/11 11:16:11;;;;;;;21.92;12.07;;;;;;;9.28;30.55;101717.97;5087492;28;20094;-36
2023/02/11 11:18:38;;;;;;;123.70;49.97;;;;;;;9.00;30.22;101707.69;5081705;28;20032;-37
2023/02/11 11:21:06;;;;;;;19.75;11.35;;;;;;;8.41;29.76;101695.38;5079620;28;20035;-36
2023/02/11 11:23:35;;;;;;;17.20;9.25;;;;;;;8.23;30.09;101710.59;5077280;28;20029;-36
2023/02/11 11:26:11;;;;;;;21.45;11.60;;;;;;;8.32;30.20;101685.72;5068969;28;20132;-37
2023/02/11 11:28:53;;;;;;;22.15;12.07;;;;;;;8.22;30.33;101687.69;5069035;28;20086;-41